Time;durP1;ratioP1;P1;durP2;ratioP2;P2;SDS_P1;SDS_P2;PMS_P1;PMS_P2;Temp;Humidity;BMP_temperature;BMP_pressure;BME280_temperature;BME280_humidity;BME280_pressure;Samples;Min_cycle;Max_cycle;Signal;HPM_P1;HPM_P2
2023/06/06 00:01:56;;;;;;;;;;;;;;;15.67;55.66;101362.66;5059974;28;1071;-49
2023/06/06 00:04:21;;;;;;;;;;;;;;;15.60;55.77;101367.50;5059498;28;1055;-45
2023/06/06 00:06:47;;;;;;;;;;;;;;;15.54;55.58;101363.84;5059542;28;1226;-49
2023/06/06 00:09:13;;;;;;;;;;;;;;;16.58;56.81;101365.97;5046416;28;1087;-48
2023/06/06 00:11:42;;;;;;;;;;;;;;;17.23;56.71;101357.75;5059473;28;1986;-48
2023/06/06 00:14:07;;;;;;;;;;;;;;;16.43;57.55;101359.19;5059509;28;1144;-50
2023/06/06 00:16:34;;;;;;;;;;;;;;;16.16;57.15;101352.84;5059347;28;1032;-47
2023/06/06 00:19:00;;;;;;;;;;;;;;;16.01;57.10;101351.59;5046055;28;1190;-46
2023/06/06 00:21:27;;;;;;;;;;;;;;;15.96;56.57;101347.97;5059530;28;1079;-45
2023/06/06 00:23:54;;;;;;;;;;;;;;;15.86;56.29;101351.41;5059459;28;1083;-45
2023/06/06 00:26:20;;;;;;;;;;;;;;;15.79;55.92;101354.34;5059208;28;1098;-44
2023/06/06 00:28:46;;;;;;;;;;;;;;;15.70;56.05;101351.19;5039617;28;1041;-48
2023/06/06 00:31:12;;;;;;;;;;;;;;;16.68;57.14;101343.25;5046926;28;1903;-47
2023/06/06 00:33:38;;;;;;;;;;;;;;;16.92;56.88;101346.53;5058656;28;1191;-46
2023/06/06 00:36:04;;;;;;;;;;;;;;;16.35;57.66;101350.59;5041482;28;1589;-48
2023/06/06 00:38:29;;;;;;;;;;;;;;;16.15;57.10;101345.72;5041212;28;1338;-46
2023/06/06 00:40:55;;;;;;;;;;;;;;;16.06;56.72;101340.69;5040846;28;1125;-46
2023/06/06 00:43:21;;;;;;;;;;;;;;;15.89;56.67;101340.78;5046148;28;1288;-48
2023/06/06 00:45:46;;;;;;;;;;;;;;;15.86;56.30;101334.94;5059012;28;1139;-47
2023/06/06 00:48:12;;;;;;;;;;;;;;;15.74;56.01;101346.84;5058518;28;1080;-48
2023/06/06 00:50:39;;;;;;;;;;;;;;;16.05;57.09;101347.25;5024103;28;1914;-48
2023/06/06 00:53:05;;;;;;;;;;;;;;;17.37;56.49;101338.88;5056823;28;1004;-47
2023/06/06 00:55:31;;;;;;;;;;;;;;;16.63;57.72;101341.28;5030237;28;1072;-48
2023/06/06 00:57:59;;;;;;;;;;;;;;;16.34;57.04;101344.31;5039307;28;1183;-47
2023/06/06 01:00:27;;;;;;;;;;;;;;;16.15;57.04;101345.72;5047907;28;1249;-46
2023/06/06 01:02:53;;;;;;;;;;;;;;;16.03;56.52;101346.69;5042701;28;1189;-50
2023/06/06 01:05:20;;;;;;;;;;;;;;;15.90;56.26;101341.59;5030091;28;1112;-47
2023/06/06 01:07:47;;;;;;;;;;;;;;;15.84;56.30;101343.44;5057589;28;1152;-46
2023/06/06 01:10:13;;;;;;;;;;;;;;;15.77;55.98;101347.41;5040518;28;1906;-46
2023/06/06 01:12:50;;;;;;;;;;;;;;;15.74;55.88;101340.53;5040669;28;1072;-44
2023/06/06 01:15:17;;;;;;;;;;;;;;;16.49;57.27;101353.78;5058702;28;1000;-45
2023/06/06 01:17:46;;;;;;;;;;;;;;;17.46;56.39;101342.78;5018431;28;1143;-48
2023/06/06 01:20:11;;;;;;;;;;;;;;;16.58;57.53;101346.75;5033471;28;1076;-43
2023/06/06 01:22:37;;;;;;;;;;;;;;;16.28;57.27;101348.06;5034631;28;1219;-45
2023/06/06 01:25:06;;;;;;;;;;;;;;;16.13;56.86;101336.91;5050806;28;1056;-48
2023/06/06 01:27:33;;;;;;;;;;;;;;;16.06;56.49;101337.94;5057839;28;1159;-49
2023/06/06 01:30:01;;;;;;;;;;;;;;;15.94;56.54;101339.19;5037595;28;1225;-50
2023/06/06 01:32:29;;;;;;;;;;;;;;;15.83;56.10;101344.50;5031876;28;1601;-47
2023/06/06 01:35:04;;;;;;;;;;;;;;;15.73;56.19;101339.69;5042142;28;1470;-48
2023/06/06 01:37:33;;;;;;;;;;;;;;;16.97;57.03;101338.34;5043083;28;1001;-48
2023/06/06 01:40:00;;;;;;;;;;;;;;;16.80;57.23;101334.84;5023420;28;1095;-48
2023/06/06 01:42:25;;;;;;;;;;;;;;;16.36;57.57;101333.88;5029782;28;903;-46
2023/06/06 01:44:51;;;;;;;;;;;;;;;16.17;57.01;101327.09;5017346;28;1305;-48
2023/06/06 01:47:16;;;;;;;;;;;;;;;15.99;56.79;101326.34;5044920;28;1102;-48
2023/06/06 01:49:42;;;;;;;;;;;;;;;15.91;56.39;101322.13;5020769;28;1551;-46
2023/06/06 01:52:08;;;;;;;;;;;;;;;15.85;56.30;101325.06;5057456;28;1913;-49
2023/06/06 01:54:35;;;;;;;;;;;;;;;15.77;56.02;101322.72;5038934;28;1121;-46
2023/06/06 01:57:01;;;;;;;;;;;;;;;15.71;55.99;101319.94;5045193;28;1012;-46
2023/06/06 01:59:27;;;;;;;;;;;;;;;15.66;55.90;101322.59;5039711;28;1310;-49
2023/06/06 02:01:52;;;;;;;;;;;;;;;16.74;57.16;101326.56;5057628;28;1012;-50
2023/06/06 02:04:18;;;;;;;;;;;;;;;17.08;56.93;101319.97;5057636;28;1103;-47
2023/06/06 02:06:43;;;;;;;;;;;;;;;16.40;57.76;101329.53;5057195;28;1200;-46
2023/06/06 02:09:10;;;;;;;;;;;;;;;16.20;57.02;101324.66;5039451;28;1107;-47
2023/06/06 02:11:36;;;;;;;;;;;;;;;16.02;56.98;101327.72;5039274;28;1980;-48
2023/06/06 02:14:02;;;;;;;;;;;;;;;15.94;56.70;101323.53;5038981;28;1221;-50
2023/06/06 02:16:29;;;;;;;;;;;;;;;15.89;56.46;101328.94;5057045;28;1186;-48
2023/06/06 02:18:56;;;;;;;;;;;;;;;15.78;56.02;101321.66;5037895;28;1287;-50
2023/06/06 02:21:21;;;;;;;;;;;;;;;15.74;55.75;101319.44;5019961;28;1512;-48
2023/06/06 02:23:48;;;;;;;;;;;;;;;16.10;56.96;101320.97;5020838;28;1236;-45
2023/06/06 02:26:14;;;;;;;;;;;;;;;17.37;56.38;101327.88;5057100;28;1088;-49
2023/06/06 02:28:41;;;;;;;;;;;;;;;16.62;57.30;101325.91;5039208;28;1111;-49
2023/06/06 02:31:09;;;;;;;;;;;;;;;16.27;57.48;101326.38;5030879;28;1940;-45
2023/06/06 02:33:34;;;;;;;;;;;;;;;16.08;56.87;101319.31;5051949;28;1032;-47
2023/06/06 02:36:00;;;;;;;;;;;;;;;15.99;56.72;101331.84;5039129;28;1494;-47
2023/06/06 02:38:26;;;;;;;;;;;;;;;15.91;56.17;101330.34;5056932;28;1098;-47
2023/06/06 02:40:51;;;;;;;;;;;;;;;15.82;56.12;101326.44;5057149;28;1157;-49
2023/06/06 02:43:17;;;;;;;;;;;;;;;15.74;56.40;101332.31;5042278;28;887;-46
2023/06/06 02:45:43;;;;;;;;;;;;;;;16.99;57.09;101338.88;5019273;28;1267;-49
2023/06/06 02:48:08;;;;;;;;;;;;;;;17.10;56.82;101335.13;5036200;28;1189;-51
2023/06/06 02:50:35;;;;;;;;;;;;;;;16.47;57.47;101339.50;5026916;28;1972;-46
2023/06/06 02:53:03;;;;;;;;;;;;;;;16.29;56.86;101337.94;5038626;28;1373;-49
2023/06/06 02:55:29;;;;;;;;;;;;;;;16.12;56.72;101336.09;5047254;28;880;-49
2023/06/06 02:57:55;;;;;;;;;;;;;;;16.00;56.53;101330.72;5018907;28;1199;-46
2023/06/06 03:00:21;;;;;;;;;;;;;;;15.95;56.14;101333.44;5044855;28;1044;-47
2023/06/06 03:02:47;;;;;;;;;;;;;;;15.87;55.94;101339.38;5038566;28;1203;-48
2023/06/06 03:05:13;;;;;;;;;;;;;;;15.79;55.81;101335.13;5038332;28;1256;-49
2023/06/06 03:07:40;;;;;;;;;;;;;;;15.70;55.96;101342.94;5038276;28;1306;-49
2023/06/06 03:10:06;;;;;;;;;;;;;;;16.14;57.25;101338.59;5048097;28;1982;-49
2023/06/06 03:12:37;;;;;;;;;;;;;;;17.44;56.59;101333.97;5038577;28;1369;-47
2023/06/06 03:15:05;;;;;;;;;;;;;;;16.65;57.42;101333.63;5038168;28;1332;-49
2023/06/06 03:17:36;;;;;;;;;;;;;;;16.29;57.40;101335.19;5038178;28;1253;-50
2023/06/06 03:20:02;;;;;;;;;;;;;;;16.16;57.16;101336.38;5044797;28;882;-49
2023/06/06 03:22:31;;;;;;;;;;;;;;;16.06;56.66;101342.59;5023221;28;1218;-50
2023/06/06 03:24:58;;;;;;;;;;;;;;;15.98;56.45;101341.16;5026660;28;1325;-48
2023/06/06 03:27:23;;;;;;;;;;;;;;;15.90;56.14;101334.19;5040951;28;1187;-49
2023/06/06 03:29:52;;;;;;;;;;;;;;;15.78;56.29;101332.63;5038140;28;1211;-47
2023/06/06 03:32:19;;;;;;;;;;;;;;;15.81;56.14;101334.88;5043288;28;1902;-47
2023/06/06 03:34:45;;;;;;;;;;;;;;;17.05;57.07;101332.31;5042241;28;1312;-46
2023/06/06 03:37:12;;;;;;;;;;;;;;;16.85;57.34;101329.41;5029076;28;1143;-47
2023/06/06 03:39:39;;;;;;;;;;;;;;;16.42;57.51;101341.09;5042003;28;1103;-46
2023/06/06 03:42:05;;;;;;;;;;;;;;;16.20;57.22;101340.28;5042047;28;1354;-52
2023/06/06 03:44:31;;;;;;;;;;;;;;;16.13;56.76;101348.72;5041611;28;1142;-50
2023/06/06 03:46:57;;;;;;;;;;;;;;;16.06;56.82;101348.94;5059599;28;1437;-48
2023/06/06 03:49:22;;;;;;;;;;;;;;;15.98;56.55;101343.88;5042550;28;1063;-49
2023/06/06 03:51:48;;;;;;;;;;;;;;;15.86;56.13;101344.00;5041927;28;1975;-48
2023/06/06 03:54:14;;;;;;;;;;;;;;;15.82;56.17;101342.88;5059576;28;1212;-49
2023/06/06 03:56:42;;;;;;;;;;;;;;;15.71;55.87;101346.50;5046489;28;996;-52
2023/06/06 03:59:11;;;;;;;;;;;;;;;16.59;57.04;101357.47;5059749;28;1223;-50
2023/06/06 04:01:38;;;;;;;;;;;;;;;17.13;57.04;101349.44;5059839;28;1098;-47
2023/06/06 04:04:03;;;;;;;;;;;;;;;16.49;57.65;101343.63;5060132;28;1192;-50
2023/06/06 04:06:29;;;;;;;;;;;;;;;16.28;57.26;101339.81;5052573;28;1096;-50
2023/06/06 04:08:56;;;;;;;;;;;;;;;16.14;56.96;101349.56;5030991;28;1119;-50
2023/06/06 04:11:23;;;;;;;;;;;;;;;16.07;56.76;101339.63;5041557;28;1948;-49
2023/06/06 04:13:48;;;;;;;;;;;;;;;15.97;56.50;101347.69;5059847;28;1047;-49
2023/06/06 04:16:14;;;;;;;;;;;;;;;15.89;56.33;101346.25;5041159;28;2074;-50
2023/06/06 04:18:39;;;;;;;;;;;;;;;15.85;56.12;101347.00;5059430;28;1020;-48
2023/06/06 04:21:05;;;;;;;;;;;;;;;15.83;55.99;101355.47;5043633;28;1147;-47
2023/06/06 04:23:31;;;;;;;;;;;;;;;15.82;56.39;101350.25;5048706;28;1013;-47
2023/06/06 04:25:57;;;;;;;;;;;;;;;17.13;56.83;101350.25;5059384;28;1032;-44
2023/06/06 04:28:22;;;;;;;;;;;;;;;16.87;57.23;101347.28;5059132;28;1099;-48
2023/06/06 04:30:52;;;;;;;;;;;;;;;16.48;57.68;101352.97;5038597;28;1989;-45
2023/06/06 04:33:19;;;;;;;;;;;;;;;16.29;57.25;101346.97;5021419;28;1452;-46
2023/06/06 04:35:44;;;;;;;;;;;;;;;16.18;56.91;101350.69;5058335;28;1127;-47
2023/06/06 04:38:12;;;;;;;;;;;;;;;16.05;56.61;101346.44;5041426;28;1408;-49
2023/06/06 04:40:40;;;;;;;;;;;;;;;16.02;56.19;101352.41;5041423;28;1238;-51
2023/06/06 04:43:07;;;;;;;;;;;;;;;15.95;56.30;101347.16;5058727;28;1091;-46
2023/06/06 04:45:34;;;;;;;;;;;;;;;15.91;56.13;101346.81;5027432;28;1043;-49
2023/06/06 04:48:00;;;;;;;;;;;;;;;15.82;56.18;101348.38;5041380;28;1458;-49
2023/06/06 04:50:29;;;;;;;;;;;;;;;15.80;55.92;101346.94;5041081;28;1963;-46
2023/06/06 04:52:54;;;;;;;;;;;;;;;15.74;55.80;101355.06;5058618;28;1269;-51
2023/06/06 04:55:20;;;;;;;;;;;;;;;15.76;55.65;101359.47;5058432;28;975;-49
2023/06/06 04:57:46;;;;;;;;;;;;;;;16.70;54.95;101357.56;5058058;28;1170;-45
2023/06/06 05:00:13;;;;;;;;;;;;;;;16.35;54.95;101351.44;5058481;28;1175;-50
2023/06/06 05:02:40;;;;;;;;;;;;;;;15.86;53.53;101354.16;5057924;28;1047;-44
2023/06/06 05:05:09;;;;;;;;;;;;;;;15.76;52.31;101359.47;5058972;28;1146;-49
2023/06/06 05:07:35;;;;;;;;;;;;;;;15.61;51.77;101357.34;5051563;28;1116;-50
2023/06/06 05:10:00;;;;;;;;;;;;;;;16.04;52.34;101356.56;5046035;28;1151;-48
2023/06/06 05:12:26;;;;;;;;;;;;;;;16.48;53.92;101352.97;5058084;28;1914;-51
2023/06/06 05:14:51;;;;;;;;;;;;;;;16.03;52.72;101349.44;5058229;28;1056;-48
2023/06/06 05:17:18;;;;;;;;;;;;;;;15.90;51.68;101347.88;5058122;28;1187;-49
2023/06/06 05:19:44;;;;;;;;;;;;;;;15.83;50.75;101340.94;5050497;28;943;-48
2023/06/06 05:22:09;;;;;;;;;;;;;;;16.82;52.68;101349.16;5052276;28;1084;-48
2023/06/06 05:24:35;;;;;;;;;;;;;;;16.25;52.17;101349.41;5058251;28;1154;-48
2023/06/06 05:27:00;;;;;;;;;;;;;;;16.01;51.25;101345.28;5058325;28;1144;-48
2023/06/06 05:29:26;;;;;;;;;;;;;;;16.00;50.39;101349.94;5057496;28;1087;-50
2023/06/06 05:31:52;;;;;;;;;;;;;;;15.99;50.49;101348.28;5057557;28;1983;-48
2023/06/06 05:34:17;;;;;;;;;;;;;;;16.53;51.71;101354.91;5038508;28;1215;-48
2023/06/06 05:36:43;;;;;;;;;;;;;;;16.16;51.03;101350.09;5051613;28;1527;-49
2023/06/06 05:39:10;;;;;;;;;;;;;;;16.11;50.13;101350.06;5057821;28;1067;-45
2023/06/06 05:41:36;;;;;;;;;;;;;;;16.02;49.38;101356.00;5044247;28;1108;-48
2023/06/06 05:44:01;;;;;;;;;;;;;;;17.07;50.92;101357.63;5057371;28;908;-50
2023/06/06 05:46:27;;;;;;;;;;;;;;;16.40;51.38;101356.97;5057886;28;1084;-49
2023/06/06 05:48:53;;;;;;;;;;;;;;;16.21;50.42;101355.66;5057887;28;1086;-50
2023/06/06 05:51:18;;;;;;;;;;;;;;;16.02;49.69;101364.25;5057516;28;1910;-47
2023/06/06 05:53:44;;;;;;;;;;;;;;;16.56;50.50;101368.13;5057246;28;1095;-47
2023/06/06 05:56:10;;;;;;;;;;;;;;;16.62;50.95;101366.25;5057157;28;1048;-45
2023/06/06 05:58:36;;;;;;;;;;;;;;;16.26;50.58;101369.47;5037681;28;1183;-53
2023/06/06 06:01:01;;;;;;;;;;;;;;;16.29;49.67;101366.19;5037480;28;1040;-48
2023/06/06 06:03:28;;;;;;;;;;;;;;;16.13;49.02;101367.09;5057659;28;1172;-45
2023/06/06 06:06:02;;;;;;;;;;;;;;;16.11;48.48;101364.59;5056477;28;1124;-48
2023/06/06 06:08:27;;;;;;;;;;;;;;;16.09;48.31;101358.56;5048817;28;861;-48
2023/06/06 06:10:53;;;;;;;;;;;;;;;16.73;49.36;101362.50;5057173;28;1883;-49
2023/06/06 06:13:19;;;;;;;;;;;;;;;16.38;49.86;101352.84;5057489;28;1159;-43
2023/06/06 06:15:44;;;;;;;;;;;;;;;16.22;49.41;101360.91;5057709;28;1064;-48
2023/06/06 06:18:10;;;;;;;;;;;;;;;16.13;48.87;101364.34;5057489;28;1107;-43
2023/06/06 06:20:35;;;;;;;;;;;;;;;17.15;50.11;101363.72;5054437;28;1091;-45
2023/06/06 06:23:01;;;;;;;;;;;;;;;16.45;50.59;101369.91;5057261;28;1583;-48
2023/06/06 06:25:27;;;;;;;;;;;;;;;16.39;49.61;101363.56;5056889;28;1150;-46
2023/06/06 06:27:52;;;;;;;;;;;;;;;16.29;49.06;101363.44;5056971;28;1028;-44
2023/06/06 06:30:18;;;;;;;;;;;;;;;16.27;48.54;101362.88;5057015;28;1979;-46
2023/06/06 06:32:44;;;;;;;;;;;;;;;16.14;48.32;101355.84;5048644;28;913;-49
2023/06/06 06:35:10;;;;;;;;;;;;;;;16.06;47.96;101361.78;5051245;28;1072;-49
2023/06/06 06:37:37;;;;;;;;;;;;;;;15.91;48.28;101360.53;5057285;28;1122;-47
2023/06/06 06:40:14;;;;;;;;;;;;;;;16.05;47.52;101358.22;5056669;28;1087;-47
2023/06/06 06:42:40;;;;;;;;;;;;;;;17.20;49.33;101369.28;5056904;28;1000;-48
2023/06/06 06:45:20;;;;;;;;;;;;;;;16.49;50.07;101359.25;5034750;28;1446;-45
2023/06/06 06:47:46;;;;;;;;;;;;;;;16.39;49.34;101366.28;5047440;28;1020;-50
2023/06/06 06:50:12;;;;;;;;;;;;;;;16.30;48.77;101362.38;5056354;28;1092;-44
2023/06/06 06:52:37;;;;;;;;;;;;;;;16.25;48.23;101357.63;5055986;28;1123;-45
2023/06/06 06:55:04;;;;;;;;;;;;;;;16.26;47.87;101358.47;5056365;28;1143;-47
2023/06/06 06:57:29;;;;;;;;;;;;;;;16.10;47.98;101354.72;5027654;28;1023;-48
2023/06/06 06:59:56;;;;;;;;;;;;;;;16.70;49.37;101358.38;5050140;28;1028;-49
2023/06/06 07:02:26;;;;;;;;;;;;;;;16.42;49.04;101359.47;5047736;28;1047;-45
2023/06/06 07:04:52;;;;;;;;;;;;;;;16.27;48.71;101348.31;5055353;28;996;-47
2023/06/06 07:07:18;;;;;;;;;;;;;;;17.14;49.16;101356.56;5044602;28;1215;-49
2023/06/06 07:09:43;;;;;;;;;;;;;;;16.63;49.36;101362.44;5054601;28;922;-49
2023/06/06 07:12:12;;;;;;;;;;;;;;;16.53;48.83;101358.47;5056165;28;1993;-46
2023/06/06 07:14:38;;;;;;;;;;;;;;;16.40;48.14;101348.75;5055821;28;1043;-44
2023/06/06 07:17:05;;;;;;;;;;;;;;;16.35;48.03;101356.91;5056159;28;1142;-47
2023/06/06 07:19:30;;;;;;;;;;;;;;;16.27;47.66;101362.88;5055932;28;1031;-48
2023/06/06 07:21:56;;;;;;;;;;;;;;;16.24;47.64;101358.75;5044412;28;882;-47
2023/06/06 07:24:22;;;;;;;;;;;;;;;16.16;47.60;101361.09;5054472;28;1104;-44
2023/06/06 07:26:51;;;;;;;;;;;;;;;16.22;47.74;101371.88;5056324;28;1020;-46
2023/06/06 07:29:21;;;;;;;;;;;;;;;16.75;48.77;101366.66;5055642;28;1242;-47
2023/06/06 07:31:46;;;;;;;;;;;;;;;16.50;48.58;101363.69;5055745;28;1975;-48
2023/06/06 07:34:12;;;;;;;;;;;;;;;16.36;48.43;101375.06;5043107;28;1128;-47
2023/06/06 07:36:38;;;;;;;;;;;;;;;16.22;48.12;101365.56;5056130;28;1063;-46
2023/06/06 07:39:03;;;;;;;;;;;;;;;16.25;47.97;101374.09;5056329;28;1107;-46
2023/06/06 07:41:30;;;;;;;;;;;;;;;16.23;47.63;101362.56;5056291;28;1152;-48
2023/06/06 07:43:55;;;;;;;;;;;;;;;16.16;47.63;101377.56;5055523;28;1083;-48
2023/06/06 07:46:21;;;;;;;;;;;;;;;16.21;47.16;101375.69;5043383;28;1131;-46
2023/06/06 07:48:47;;;;;;;;;;;;;;;16.98;48.32;101370.19;5055208;28;1209;-48
2023/06/06 07:51:12;;;;;;;;;;;;;;;16.40;49.34;101369.88;5055060;28;1981;-47
2023/06/06 07:53:38;;;;;;;;;;;;;;;16.41;48.46;101358.66;5038381;28;1183;-47
2023/06/06 07:56:03;;;;;;;;;;;;;;;16.26;48.09;101372.19;5055445;28;1067;-45
2023/06/06 07:58:41;;;;;;;;;;;;;;;16.26;47.88;101358.47;5045940;28;1152;-46
2023/06/06 08:01:09;;;;;;;;;;;;;;;16.21;47.66;101369.38;5054314;28;1100;-51
2023/06/06 08:03:34;;;;;;;;;;;;;;;16.16;47.39;101372.06;5055655;28;1063;-54
2023/06/06 08:06:00;;;;;;;;;;;;;;;16.47;47.74;101369.69;5055859;28;1246;-45
2023/06/06 08:08:26;;;;;;;;;;;;;;;16.98;48.88;101361.94;5055693;28;1083;-45
2023/06/06 08:10:52;;;;;;;;;;;;;;;16.57;49.25;101364.28;5042469;28;1910;-47
2023/06/06 08:13:19;;;;;;;;;;;;;;;16.35;48.76;101367.91;5056141;28;1080;-45
2023/06/06 08:15:44;;;;;;;;;;;;;;;16.33;48.07;101370.09;5055371;28;1060;-42
2023/06/06 08:18:10;;;;;;;;;;;;;;;16.30;47.91;101369.75;5059449;28;1529;-48
2023/06/06 08:20:35;;;;;;;;;;;;;;;16.23;47.70;101375.47;5058818;28;1179;-48
2023/06/06 08:23:01;;;;;;;;;;;;;;;17.53;48.74;101359.03;5047517;28;1116;-48
2023/06/06 08:25:26;;;;;;;;;;;;;;;16.76;49.68;101362.84;5057846;28;1159;-46
2023/06/06 08:27:52;;;;;;;;;;;;;;;16.55;49.18;101364.56;5059150;28;1008;-46
2023/06/06 08:30:18;;;;;;;;;;;;;;;16.51;48.36;101357.94;5059608;28;1906;-46
2023/06/06 08:32:43;;;;;;;;;;;;;;;16.43;47.94;101367.44;5059087;28;1060;-48
2023/06/06 08:35:09;;;;;;;;;;;;;;;16.39;47.59;101362.72;5045743;28;1215;-50
2023/06/06 08:37:35;;;;;;;;;;;;;;;16.42;47.37;101368.53;5059019;28;1156;-48
2023/06/06 08:40:00;;;;;;;;;;;;;;;16.32;47.17;101357.44;5059006;28;1148;-49
2023/06/06 08:42:26;;;;;;;;;;;;;;;16.30;47.30;101356.03;5059379;28;1135;-48
2023/06/06 08:44:52;;;;;;;;;;;;;;;16.21;47.21;101364.72;5039627;28;1091;-51
2023/06/06 08:47:17;;;;;;;;;;;;;;;16.21;46.92;101350.19;5046704;28;1149;-49
2023/06/06 08:49:43;;;;;;;;;;;;;;;16.16;47.06;101348.22;5040555;28;1179;-49
2023/06/06 08:52:09;;;;;;;;;;;;;;;16.18;47.04;101345.22;5041074;28;1910;-44
2023/06/06 08:54:34;;;;;;;;;;;;;;;16.15;47.08;101341.06;5058770;28;1106;-47
2023/06/06 08:57:07;;;;;;;;;;;;;;;16.16;46.78;101352.84;5040292;28;1231;-47
2023/06/06 08:59:36;;;;;;;;;;;;;;;16.14;46.80;101341.31;5045179;28;1107;-49
2023/06/06 09:02:02;;;;;;;;;;;;;;;17.39;48.27;101332.03;5049937;28;1013;-45
2023/06/06 09:04:27;;;;;;;;;;;;;;;16.62;49.09;101344.28;5020606;28;1168;-49
2023/06/06 09:06:56;;;;;;;;;;;;;;;16.42;48.99;101340.25;5029492;28;1152;-48
2023/06/06 09:09:22;;;;;;;;;;;;;;;16.36;48.27;101346.78;5055199;28;1143;-47
2023/06/06 09:11:47;;;;;;;;;;;;;;;16.30;47.96;101332.19;5038554;28;1899;-48
2023/06/06 09:14:13;;;;;;;;;;;;;;;16.35;47.39;101340.44;5036564;28;1088;-48
2023/06/06 09:16:38;;;;;;;;;;;;;;;16.22;47.28;101340.88;5058285;28;1123;-47
2023/06/06 09:19:05;;;;;;;;;;;;;;;16.24;46.98;101339.53;5040650;28;1159;-49
2023/06/06 09:21:33;;;;;;;;;;;;;;;16.21;47.06;101330.97;5058267;28;1083;-49
2023/06/06 09:23:59;;;;;;;;;;;;;;;16.15;47.05;101340.25;5045142;28;1136;-46
2023/06/06 09:26:26;;;;;;;;;;;;;;;16.60;47.38;101342.63;5058242;28;1048;-48
2023/06/06 09:28:51;;;;;;;;;;;;;;;16.69;48.56;101345.75;5057076;28;1108;-47
2023/06/06 09:31:21;;;;;;;;;;;;;;;16.54;48.41;101348.34;5058181;28;1909;-49
2023/06/06 09:33:48;;;;;;;;;;;;;;;16.32;48.14;101351.13;5054534;28;1116;-49
2023/06/06 09:36:13;;;;;;;;;;;;;;;16.28;47.86;101339.00;5020603;28;1132;-47
2023/06/06 09:38:39;;;;;;;;;;;;;;;16.20;47.79;101351.25;5054231;28;1084;-47
2023/06/06 09:41:05;;;;;;;;;;;;;;;16.99;48.17;101327.91;5058018;28;1076;-46
2023/06/06 09:43:30;;;;;;;;;;;;;;;16.60;48.71;101339.06;5054743;28;1095;-45
2023/06/06 09:45:58;;;;;;;;;;;;;;;16.50;48.08;101341.72;5047469;28;841;-50
2023/06/06 09:48:25;;;;;;;;;;;;;;;16.40;47.56;101337.75;5043473;28;1220;-45
2023/06/06 09:50:51;;;;;;;;;;;;;;;16.25;47.48;101334.84;5057435;28;1967;-46
2023/06/06 09:53:17;;;;;;;;;;;;;;;16.29;47.35;101336.00;5057926;28;1088;-47
2023/06/06 09:55:42;;;;;;;;;;;;;;;16.31;47.02;101342.06;5057970;28;1051;-44
2023/06/06 09:58:17;;;;;;;;;;;;;;;16.30;46.93;101348.66;5054126;28;1218;-44
2023/06/06 10:00:46;;;;;;;;;;;;;;;16.21;46.87;101345.50;5049168;28;1169;-47
2023/06/06 10:03:18;;;;;;;;;;;;;;;16.24;46.61;101335.94;5039478;28;1210;-49
2023/06/06 10:05:46;;;;;;;;;;;;;;;16.79;48.10;101344.16;5052094;28;1346;-50
2023/06/06 10:08:12;;;;;;;;;;;;;;;16.45;48.14;101334.25;5036876;28;1047;-43
2023/06/06 10:10:38;;;;;;;;;;;;;;;16.38;47.63;101341.84;5049059;28;1914;-48
2023/06/06 10:13:04;;;;;;;;;;;;;;;16.30;47.42;101343.16;5056837;28;1211;-48
2023/06/06 10:15:30;;;;;;;;;;;;;;;16.31;47.24;101346.72;5057094;28;1230;-47
2023/06/06 10:17:55;;;;;;;;;;;;;;;16.25;46.86;101351.31;5038733;28;1120;-47
2023/06/06 10:20:21;;;;;;;;;;;;;;;17.57;47.72;101338.16;5039093;28;1135;-50
2023/06/06 10:22:46;;;;;;;;;;;;;;;16.75;48.89;101344.69;5038616;28;1121;-49
2023/06/06 10:25:12;;;;;;;;;;;;;;;16.52;48.66;101336.78;5056420;28;1051;-51
2023/06/06 10:27:44;;;;;;;;;;;;;;;16.51;47.99;101332.38;5057061;28;1079;-46
2023/06/06 10:30:13;;;;;;;;;;;;;;;16.48;47.59;101339.22;5052261;28;1332;-50
2023/06/06 10:32:45;;;;;;;;;;;;;;;16.35;47.28;101340.44;5056592;28;1985;-47
2023/06/06 10:35:11;;;;;;;;;;;;;;;16.39;47.19;101330.63;5047789;28;1002;-48
2023/06/06 10:37:38;;;;;;;;;;;;;;;16.28;46.88;101315.13;5056538;28;1090;-46
2023/06/06 10:40:05;;;;;;;;;;;;;;;16.20;46.85;101318.34;5039040;28;1056;-50
2023/06/06 10:42:40;;;;;;;;;;;;;;;16.26;46.71;101320.06;5056624;28;1076;-49
2023/06/06 10:45:08;;;;;;;;;;;;;;;16.25;46.50;101318.41;5056520;28;1147;-45
2023/06/06 10:47:37;;;;;;;;;;;;;;;16.26;46.40;101320.06;5056074;28;1088;-50
2023/06/06 10:50:03;;;;;;;;;;;;;;;16.18;46.59;101313.09;5053400;28;1238;-49
2023/06/06 10:52:28;;;;;;;;;;;;;;;16.17;46.58;101316.97;5046616;28;1910;-46
2023/06/06 10:54:57;;;;;;;;;;;;;;;16.18;46.45;101302.13;5056011;28;1297;-46
2023/06/06 10:57:22;;;;;;;;;;;;;;;16.21;46.42;101311.75;5054620;28;1334;-44
2023/06/06 10:59:48;;;;;;;;;;;;;;;16.74;47.94;101314.75;5046617;28;1718;-49
2023/06/06 11:02:15;;;;;;;;;;;;;;;16.39;48.09;101316.88;5033738;28;1303;-47
2023/06/06 11:04:40;;;;;;;;;;;;;;;16.29;47.61;101305.00;5038436;28;1445;-42
2023/06/06 11:07:15;;;;;;;;;;;;;;;16.28;47.40;101312.38;5055662;28;1130;-46
2023/06/06 11:09:41;;;;;;;;;;;;;;;16.28;47.09;101298.66;5037812;28;1087;-45
2023/06/06 11:12:13;;;;;;;;;;;;;;;16.24;46.76;101301.13;5042718;28;1913;-46
2023/06/06 11:14:57;;;;;;;;;;;;;;;16.14;46.97;101300.16;5056159;28;1132;-49
2023/06/06 11:17:41;;;;;;;;;;;;;;;17.22;47.73;101314.84;5055504;28;1056;-47
2023/06/06 11:20:08;;;;;;;;;;;;;;;16.57;48.25;101303.91;5055958;28;1124;-46
2023/06/06 11:22:34;;;;;;;;;;;;;;;16.45;48.07;101308.72;5056096;28;1008;-50
2023/06/06 11:24:59;;;;;;;;;;;;;;;16.32;47.90;101312.72;5042807;28;1044;-47
2023/06/06 11:27:25;;;;;;;;;;;;;;;16.38;47.05;101318.00;5056379;28;1136;-47
2023/06/06 11:29:52;;;;;;;;;;;;;;;16.30;46.94;101312.13;5056254;28;1172;-47
2023/06/06 11:32:18;;;;;;;;;;;;;;;16.30;47.22;101307.47;5055824;28;1980;-46
2023/06/06 11:34:43;;;;;;;;;;;;;;;16.88;48.14;101309.66;5055772;28;1099;-47
2023/06/06 11:37:09;;;;;;;;;;;;;;;16.54;48.17;101305.25;5056286;28;1023;-48
2023/06/06 11:39:35;;;;;;;;;;;;;;;16.49;47.55;101296.94;5038455;28;1140;-46
2023/06/06 11:42:00;;;;;;;;;;;;;;;16.40;47.26;101299.34;5056231;28;1151;-46
2023/06/06 11:44:35;;;;;;;;;;;;;;;16.27;47.21;101298.94;5056283;28;996;-46
2023/06/06 11:47:02;;;;;;;;;;;;;;;16.25;46.99;101301.94;5045535;28;1151;-47
2023/06/06 11:49:28;;;;;;;;;;;;;;;16.19;46.80;101303.78;5053093;28;1067;-44
2023/06/06 11:51:55;;;;;;;;;;;;;;;16.40;47.21;101304.81;5057568;28;1976;-45
2023/06/06 11:54:21;;;;;;;;;;;;;;;16.87;47.90;101303.34;5060020;28;1132;-43
2023/06/06 11:56:46;;;;;;;;;;;;;;;16.51;48.29;101308.50;5059633;28;1110;-46
2023/06/06 11:59:12;;;;;;;;;;;;;;;16.38;47.86;101297.94;5036923;28;1158;-48
2023/06/06 12:01:46;;;;;;;;;;;;;;;17.05;48.33;101288.38;5050955;28;1154;-47
2023/06/06 12:04:11;;;;;;;;;;;;;;;16.83;48.50;101301.34;5059910;28;1226;-47
2023/06/06 12:06:37;;;;;;;;;;;;;;;16.68;47.81;101299.34;5041878;28;1016;-47
2023/06/06 12:09:03;;;;;;;;;;;;;;;16.41;48.08;101287.28;5041802;28;1213;-45
2023/06/06 12:11:31;;;;;;;;;;;;;;;16.50;47.30;101297.78;5047382;28;1989;-45
2023/06/06 12:13:56;;;;;;;;;;;;;;;16.43;47.16;101287.84;5058689;28;1052;-47
2023/06/06 12:16:28;;;;;;;;;;;;;;;16.44;46.84;101285.94;5059337;28;1059;-48
2023/06/06 12:18:56;;;;;;;;;;;;;;;16.42;46.57;101288.94;5059699;28;1278;-47
2023/06/06 12:21:22;;;;;;;;;;;;;;;16.31;46.56;101289.91;5059531;28;1059;-45
2023/06/06 12:23:48;;;;;;;;;;;;;;;16.24;46.73;101286.53;5052310;28;1033;-43
2023/06/06 12:26:16;;;;;;;;;;;;;;;16.29;46.40;101275.63;5052896;28;1138;-47
2023/06/06 12:28:58;;;;;;;;;;;;;;;16.41;47.10;101273.56;5052286;28;1092;-44
2023/06/06 12:31:24;;;;;;;;;;;;;;;16.69;48.15;101273.50;5051832;28;1989;-49
2023/06/06 12:33:50;;;;;;;;;;;;;;;16.52;47.93;101270.91;5042296;28;1143;-46
2023/06/06 12:36:18;;;;;;;;;;;;;;;16.38;47.47;101267.75;5048994;28;934;-47
2023/06/06 12:38:44;;;;;;;;;;;;;;;16.48;46.90;101267.00;5051789;28;1358;-47
2023/06/06 12:41:10;;;;;;;;;;;;;;;16.38;46.69;101262.25;5058981;28;1171;-48
2023/06/06 12:43:35;;;;;;;;;;;;;;;16.40;46.62;101258.16;5058264;28;1166;-46
2023/06/06 12:46:01;;;;;;;;;;;;;;;16.22;46.60;101269.53;5058022;28;1028;-45